sensor_id;sensor_type;location;lat;lon;timestamp;P1;durP1;ratioP1;P2;durP2;ratioP2
40290;SDS011;26000;48.304;13.626;2023-05-24T00:01:50;7.88;;;5.93;;
40290;SDS011;26000;48.304;13.626;2023-05-24T00:04:16;6.97;;;6.20;;
40290;SDS011;26000;48.304;13.626;2023-05-24T00:06:43;6.63;;;5.88;;
40290;SDS011;26000;48.304;13.626;2023-05-24T00:09:09;7.80;;;6.30;;
40290;SDS011;26000;48.304;13.626;2023-05-24T00:11:37;8.80;;;6.13;;
40290;SDS011;26000;48.304;13.626;2023-05-24T00:14:03;6.80;;;5.95;;
40290;SDS011;26000;48.304;13.626;2023-05-24T00:16:28;7.15;;;6.32;;
40290;SDS011;26000;48.304;13.626;2023-05-24T00:18:54;10.27;;;6.45;;
40290;SDS011;26000;48.304;13.626;2023-05-24T00:21:22;8.02;;;6.35;;
40290;SDS011;26000;48.304;13.626;2023-05-24T00:23:47;7.55;;;6.15;;
40290;SDS011;26000;48.304;13.626;2023-05-24T00:26:15;7.72;;;5.93;;
40290;SDS011;26000;48.304;13.626;2023-05-24T00:28:41;6.45;;;5.85;;
40290;SDS011;26000;48.304;13.626;2023-05-24T00:31:07;7.32;;;5.85;;
40290;SDS011;26000;48.304;13.626;2023-05-24T00:33:33;6.10;;;5.50;;
40290;SDS011;26000;48.304;13.626;2023-05-24T00:35:58;6.40;;;5.80;;
40290;SDS011;26000;48.304;13.626;2023-05-24T00:38:24;6.80;;;6.05;;
40290;SDS011;26000;48.304;13.626;2023-05-24T00:40:51;8.52;;;5.97;;
40290;SDS011;26000;48.304;13.626;2023-05-24T00:43:17;7.60;;;5.85;;
40290;SDS011;26000;48.304;13.626;2023-05-24T00:45:43;7.97;;;5.60;;
40290;SDS011;26000;48.304;13.626;2023-05-24T00:48:09;7.32;;;5.72;;
40290;SDS011;26000;48.304;13.626;2023-05-24T00:50:35;6.15;;;5.47;;
40290;SDS011;26000;48.304;13.626;2023-05-24T00:53:02;6.80;;;6.00;;
40290;SDS011;26000;48.304;13.626;2023-05-24T00:55:29;7.22;;;5.88;;
40290;SDS011;26000;48.304;13.626;2023-05-24T00:57:58;9.02;;;5.70;;
40290;SDS011;26000;48.304;13.626;2023-05-24T01:00:24;6.68;;;5.90;;
40290;SDS011;26000;48.304;13.626;2023-05-24T01:02:51;6.75;;;5.85;;
40290;SDS011;26000;48.304;13.626;2023-05-24T01:05:19;6.40;;;5.80;;
40290;SDS011;26000;48.304;13.626;2023-05-24T01:10:24;7.95;;;5.88;;
40290;SDS011;26000;48.304;13.626;2023-05-24T01:12:52;6.93;;;6.22;;
40290;SDS011;26000;48.304;13.626;2023-05-24T01:16:02;6.38;;;5.78;;
40290;SDS011;26000;48.304;13.626;2023-05-24T01:19:10;6.68;;;5.80;;
40290;SDS011;26000;48.304;13.626;2023-05-24T01:22:01;7.90;;;6.38;;
40290;SDS011;26000;48.304;13.626;2023-05-24T01:25:03;6.75;;;6.05;;
40290;SDS011;26000;48.304;13.626;2023-05-24T01:27:31;6.88;;;6.15;;
40290;SDS011;26000;48.304;13.626;2023-05-24T01:29:58;9.65;;;5.85;;
40290;SDS011;26000;48.304;13.626;2023-05-24T01:32:24;8.07;;;6.32;;
40290;SDS011;26000;48.304;13.626;2023-05-24T01:34:50;7.10;;;6.30;;
40290;SDS011;26000;48.304;13.626;2023-05-24T01:37:16;7.13;;;5.85;;
40290;SDS011;26000;48.304;13.626;2023-05-24T01:39:42;6.95;;;6.25;;
40290;SDS011;26000;48.304;13.626;2023-05-24T01:42:10;7.35;;;6.43;;
40290;SDS011;26000;48.304;13.626;2023-05-24T01:50:27;7.40;;;6.43;;
40290;SDS011;26000;48.304;13.626;2023-05-24T01:53:02;8.30;;;6.43;;
40290;SDS011;26000;48.304;13.626;2023-05-24T01:55:30;8.57;;;6.93;;
40290;SDS011;26000;48.304;13.626;2023-05-24T01:57:57;7.10;;;6.40;;
40290;SDS011;26000;48.304;13.626;2023-05-24T02:00:26;7.15;;;6.20;;
40290;SDS011;26000;48.304;13.626;2023-05-24T02:02:54;6.80;;;6.07;;
40290;SDS011;26000;48.304;13.626;2023-05-24T02:05:20;7.57;;;6.15;;
40290;SDS011;26000;48.304;13.626;2023-05-24T02:07:46;9.73;;;6.80;;
40290;SDS011;26000;48.304;13.626;2023-05-24T02:10:11;7.40;;;6.70;;
40290;SDS011;26000;48.304;13.626;2023-05-24T02:12:37;7.68;;;6.47;;
40290;SDS011;26000;48.304;13.626;2023-05-24T02:15:03;8.38;;;6.22;;
40290;SDS011;26000;48.304;13.626;2023-05-24T02:17:29;7.10;;;6.03;;
40290;SDS011;26000;48.304;13.626;2023-05-24T02:19:57;7.85;;;7.05;;
40290;SDS011;26000;48.304;13.626;2023-05-24T02:22:24;8.55;;;6.20;;
40290;SDS011;26000;48.304;13.626;2023-05-24T02:24:49;7.55;;;6.47;;
40290;SDS011;26000;48.304;13.626;2023-05-24T02:27:15;7.63;;;6.63;;
40290;SDS011;26000;48.304;13.626;2023-05-24T02:29:41;7.78;;;7.00;;
40290;SDS011;26000;48.304;13.626;2023-05-24T02:32:06;7.63;;;6.78;;
40290;SDS011;26000;48.304;13.626;2023-05-24T02:34:32;7.85;;;6.70;;
40290;SDS011;26000;48.304;13.626;2023-05-24T02:36:58;8.48;;;6.43;;
40290;SDS011;26000;48.304;13.626;2023-05-24T02:39:23;8.05;;;6.50;;
40290;SDS011;26000;48.304;13.626;2023-05-24T02:41:49;7.30;;;6.60;;
40290;SDS011;26000;48.304;13.626;2023-05-24T02:44:15;9.18;;;6.60;;
40290;SDS011;26000;48.304;13.626;2023-05-24T02:46:40;6.85;;;6.15;;
40290;SDS011;26000;48.304;13.626;2023-05-24T02:49:06;9.73;;;6.72;;
40290;SDS011;26000;48.304;13.626;2023-05-24T02:51:32;7.50;;;6.70;;
40290;SDS011;26000;48.304;13.626;2023-05-24T02:53:57;9.27;;;6.53;;
40290;SDS011;26000;48.304;13.626;2023-05-24T02:56:23;7.25;;;6.50;;
40290;SDS011;26000;48.304;13.626;2023-05-24T02:58:50;7.85;;;6.75;;
40290;SDS011;26000;48.304;13.626;2023-05-24T03:01:18;7.40;;;6.70;;
40290;SDS011;26000;48.304;13.626;2023-05-24T03:03:45;9.07;;;6.88;;
40290;SDS011;26000;48.304;13.626;2023-05-24T03:06:10;7.28;;;6.35;;
40290;SDS011;26000;48.304;13.626;2023-05-24T03:08:37;6.75;;;6.15;;
40290;SDS011;26000;48.304;13.626;2023-05-24T03:11:03;6.75;;;6.13;;
40290;SDS011;26000;48.304;13.626;2023-05-24T03:13:29;6.93;;;6.15;;
40290;SDS011;26000;48.304;13.626;2023-05-24T03:15:55;7.30;;;6.60;;
40290;SDS011;26000;48.304;13.626;2023-05-24T03:18:20;7.22;;;6.35;;
40290;SDS011;26000;48.304;13.626;2023-05-24T03:20:46;9.02;;;6.30;;
40290;SDS011;26000;48.304;13.626;2023-05-24T03:23:12;7.10;;;6.22;;
40290;SDS011;26000;48.304;13.626;2023-05-24T03:25:39;7.53;;;6.50;;
40290;SDS011;26000;48.304;13.626;2023-05-24T03:28:04;7.85;;;6.60;;
40290;SDS011;26000;48.304;13.626;2023-05-24T03:30:31;7.35;;;5.80;;
40290;SDS011;26000;48.304;13.626;2023-05-24T03:32:57;6.85;;;6.15;;
40290;SDS011;26000;48.304;13.626;2023-05-24T03:35:22;7.70;;;6.28;;
40290;SDS011;26000;48.304;13.626;2023-05-24T03:37:48;8.35;;;6.70;;
40290;SDS011;26000;48.304;13.626;2023-05-24T03:40:14;7.25;;;6.55;;
40290;SDS011;26000;48.304;13.626;2023-05-24T03:42:40;7.50;;;6.80;;
40290;SDS011;26000;48.304;13.626;2023-05-24T03:45:05;7.00;;;6.30;;
40290;SDS011;26000;48.304;13.626;2023-05-24T03:47:32;8.13;;;6.50;;
40290;SDS011;26000;48.304;13.626;2023-05-24T03:49:57;7.10;;;6.28;;
40290;SDS011;26000;48.304;13.626;2023-05-24T03:52:23;7.13;;;6.28;;
40290;SDS011;26000;48.304;13.626;2023-05-24T03:54:49;7.47;;;6.20;;
40290;SDS011;26000;48.304;13.626;2023-05-24T03:57:14;7.35;;;6.45;;
40290;SDS011;26000;48.304;13.626;2023-05-24T03:59:41;9.38;;;6.68;;
40290;SDS011;26000;48.304;13.626;2023-05-24T04:02:06;6.97;;;6.28;;
40290;SDS011;26000;48.304;13.626;2023-05-24T04:04:32;8.18;;;6.72;;
40290;SDS011;26000;48.304;13.626;2023-05-24T04:06:58;8.63;;;6.55;;
40290;SDS011;26000;48.304;13.626;2023-05-24T04:09:23;8.52;;;6.53;;
40290;SDS011;26000;48.304;13.626;2023-05-24T04:11:49;7.85;;;6.35;;
40290;SDS011;26000;48.304;13.626;2023-05-24T04:14:15;7.07;;;6.38;;
40290;SDS011;26000;48.304;13.626;2023-05-24T04:16:40;8.00;;;6.35;;
40290;SDS011;26000;48.304;13.626;2023-05-24T04:19:09;7.93;;;6.65;;
40290;SDS011;26000;48.304;13.626;2023-05-24T04:21:35;7.07;;;6.38;;
40290;SDS011;26000;48.304;13.626;2023-05-24T04:24:01;7.20;;;6.43;;
40290;SDS011;26000;48.304;13.626;2023-05-24T04:26:30;8.02;;;5.65;;
40290;SDS011;26000;48.304;13.626;2023-05-24T04:28:57;7.15;;;6.40;;
40290;SDS011;26000;48.304;13.626;2023-05-24T04:31:23;6.32;;;5.70;;
40290;SDS011;26000;48.304;13.626;2023-05-24T04:33:50;6.57;;;5.80;;
40290;SDS011;26000;48.304;13.626;2023-05-24T04:36:16;7.22;;;6.32;;
40290;SDS011;26000;48.304;13.626;2023-05-24T04:38:42;7.32;;;6.60;;
40290;SDS011;26000;48.304;13.626;2023-05-24T04:41:09;7.38;;;6.43;;
40290;SDS011;26000;48.304;13.626;2023-05-24T04:43:36;6.95;;;6.30;;
40290;SDS011;26000;48.304;13.626;2023-05-24T04:46:02;6.85;;;6.00;;
40290;SDS011;26000;48.304;13.626;2023-05-24T04:48:28;6.63;;;5.72;;
40290;SDS011;26000;48.304;13.626;2023-05-24T04:50:54;8.88;;;6.03;;
40290;SDS011;26000;48.304;13.626;2023-05-24T04:53:20;6.88;;;6.18;;
40290;SDS011;26000;48.304;13.626;2023-05-24T04:55:47;9.77;;;6.25;;
40290;SDS011;26000;48.304;13.626;2023-05-24T04:58:13;9.48;;;6.18;;
40290;SDS011;26000;48.304;13.626;2023-05-24T05:00:40;6.72;;;6.03;;
40290;SDS011;26000;48.304;13.626;2023-05-24T05:03:06;6.82;;;6.03;;
40290;SDS011;26000;48.304;13.626;2023-05-24T05:05:32;7.07;;;6.38;;
40290;SDS011;26000;48.304;13.626;2023-05-24T05:07:58;6.10;;;5.50;;
40290;SDS011;26000;48.304;13.626;2023-05-24T05:10:24;6.35;;;5.75;;
40290;SDS011;26000;48.304;13.626;2023-05-24T05:12:50;5.82;;;5.28;;
40290;SDS011;26000;48.304;13.626;2023-05-24T05:15:16;6.25;;;5.47;;
40290;SDS011;26000;48.304;13.626;2023-05-24T05:17:41;6.38;;;5.45;;
40290;SDS011;26000;48.304;13.626;2023-05-24T05:20:07;7.38;;;5.65;;
40290;SDS011;26000;48.304;13.626;2023-05-24T05:22:33;6.63;;;5.95;;
40290;SDS011;26000;48.304;13.626;2023-05-24T05:24:59;7.45;;;5.80;;
40290;SDS011;26000;48.304;13.626;2023-05-24T05:27:25;6.43;;;5.80;;
40290;SDS011;26000;48.304;13.626;2023-05-24T05:29:51;6.07;;;5.47;;
40290;SDS011;26000;48.304;13.626;2023-05-24T05:32:17;6.45;;;5.57;;
40290;SDS011;26000;48.304;13.626;2023-05-24T05:34:43;6.00;;;5.38;;
40290;SDS011;26000;48.304;13.626;2023-05-24T05:37:09;5.70;;;5.10;;
40290;SDS011;26000;48.304;13.626;2023-05-24T05:39:35;6.13;;;5.55;;
40290;SDS011;26000;48.304;13.626;2023-05-24T05:42:00;6.95;;;5.82;;
40290;SDS011;26000;48.304;13.626;2023-05-24T05:44:26;6.25;;;5.25;;
40290;SDS011;26000;48.304;13.626;2023-05-24T05:46:52;6.97;;;5.65;;
40290;SDS011;26000;48.304;13.626;2023-05-24T05:49:18;6.40;;;5.50;;
40290;SDS011;26000;48.304;13.626;2023-05-24T05:51:44;6.25;;;5.20;;
40290;SDS011;26000;48.304;13.626;2023-05-24T05:54:11;7.03;;;5.75;;
40290;SDS011;26000;48.304;13.626;2023-05-24T05:56:42;6.82;;;5.90;;
40290;SDS011;26000;48.304;13.626;2023-05-24T05:59:15;6.47;;;5.65;;
40290;SDS011;26000;48.304;13.626;2023-05-24T06:01:41;6.22;;;5.13;;
40290;SDS011;26000;48.304;13.626;2023-05-24T06:04:08;5.75;;;5.15;;
40290;SDS011;26000;48.304;13.626;2023-05-24T06:06:34;5.30;;;4.80;;
40290;SDS011;26000;48.304;13.626;2023-05-24T06:09:00;6.63;;;5.32;;
40290;SDS011;26000;48.304;13.626;2023-05-24T06:11:26;8.07;;;5.55;;
40290;SDS011;26000;48.304;13.626;2023-05-24T06:13:52;6.53;;;5.22;;
40290;SDS011;26000;48.304;13.626;2023-05-24T06:16:18;5.70;;;5.03;;
40290;SDS011;26000;48.304;13.626;2023-05-24T06:18:45;6.88;;;5.40;;
40290;SDS011;26000;48.304;13.626;2023-05-24T06:21:11;5.95;;;5.35;;
40290;SDS011;26000;48.304;13.626;2023-05-24T06:23:38;6.38;;;5.50;;
40290;SDS011;26000;48.304;13.626;2023-05-24T06:26:05;6.07;;;5.30;;
40290;SDS011;26000;48.304;13.626;2023-05-24T06:28:34;6.05;;;5.43;;
40290;SDS011;26000;48.304;13.626;2023-05-24T06:31:00;7.93;;;5.10;;
40290;SDS011;26000;48.304;13.626;2023-05-24T06:33:27;7.38;;;4.97;;
40290;SDS011;26000;48.304;13.626;2023-05-24T06:35:52;5.72;;;4.85;;
40290;SDS011;26000;48.304;13.626;2023-05-24T06:38:18;5.20;;;4.70;;
40290;SDS011;26000;48.304;13.626;2023-05-24T06:40:44;7.40;;;4.97;;
40290;SDS011;26000;48.304;13.626;2023-05-24T06:43:09;4.97;;;4.47;;
40290;SDS011;26000;48.304;13.626;2023-05-24T06:45:35;5.70;;;5.10;;
40290;SDS011;26000;48.304;13.626;2023-05-24T06:48:01;6.05;;;4.75;;
40290;SDS011;26000;48.304;13.626;2023-05-24T06:50:27;5.20;;;4.70;;
40290;SDS011;26000;48.304;13.626;2023-05-24T06:52:53;6.47;;;4.20;;
40290;SDS011;26000;48.304;13.626;2023-05-24T06:55:18;5.63;;;4.70;;
40290;SDS011;26000;48.304;13.626;2023-05-24T06:57:44;5.55;;;4.90;;
40290;SDS011;26000;48.304;13.626;2023-05-24T07:00:10;4.85;;;4.45;;
40290;SDS011;26000;48.304;13.626;2023-05-24T07:02:40;6.57;;;5.18;;
40290;SDS011;26000;48.304;13.626;2023-05-24T07:05:06;5.53;;;4.82;;
40290;SDS011;26000;48.304;13.626;2023-05-24T07:07:39;5.45;;;4.93;;
40290;SDS011;26000;48.304;13.626;2023-05-24T07:10:06;5.65;;;5.00;;
40290;SDS011;26000;48.304;13.626;2023-05-24T07:12:33;9.10;;;5.05;;
40290;SDS011;26000;48.304;13.626;2023-05-24T07:14:59;6.25;;;4.20;;
40290;SDS011;26000;48.304;13.626;2023-05-24T07:17:24;6.32;;;4.70;;
40290;SDS011;26000;48.304;13.626;2023-05-24T07:19:50;5.88;;;4.68;;
40290;SDS011;26000;48.304;13.626;2023-05-24T07:22:16;5.10;;;4.60;;
40290;SDS011;26000;48.304;13.626;2023-05-24T07:24:41;4.65;;;4.15;;
40290;SDS011;26000;48.304;13.626;2023-05-24T07:27:07;4.10;;;3.70;;
40290;SDS011;26000;48.304;13.626;2023-05-24T07:29:33;5.47;;;3.95;;
40290;SDS011;26000;48.304;13.626;2023-05-24T07:31:59;4.30;;;3.90;;
40290;SDS011;26000;48.304;13.626;2023-05-24T07:34:25;4.72;;;4.22;;
40290;SDS011;26000;48.304;13.626;2023-05-24T07:36:54;5.00;;;4.50;;
40290;SDS011;26000;48.304;13.626;2023-05-24T07:39:20;4.72;;;4.20;;
40290;SDS011;26000;48.304;13.626;2023-05-24T07:41:47;4.40;;;4.00;;
40290;SDS011;26000;48.304;13.626;2023-05-24T07:44:13;5.82;;;4.07;;
40290;SDS011;26000;48.304;13.626;2023-05-24T07:46:39;3.83;;;3.53;;
40290;SDS011;26000;48.304;13.626;2023-05-24T07:49:04;3.55;;;3.20;;
40290;SDS011;26000;48.304;13.626;2023-05-24T07:51:30;3.78;;;3.38;;
40290;SDS011;26000;48.304;13.626;2023-05-24T07:53:56;3.10;;;2.80;;
40290;SDS011;26000;48.304;13.626;2023-05-24T07:56:22;2.83;;;2.63;;
40290;SDS011;26000;48.304;13.626;2023-05-24T07:58:47;4.38;;;3.33;;
40290;SDS011;26000;48.304;13.626;2023-05-24T08:01:15;4.88;;;3.10;;
40290;SDS011;26000;48.304;13.626;2023-05-24T08:03:42;3.55;;;3.25;;
40290;SDS011;26000;48.304;13.626;2023-05-24T08:06:09;4.10;;;3.00;;
40290;SDS011;26000;48.304;13.626;2023-05-24T08:08:35;3.33;;;3.03;;
40290;SDS011;26000;48.304;13.626;2023-05-24T08:11:02;4.65;;;3.60;;
40290;SDS011;26000;48.304;13.626;2023-05-24T08:13:28;3.60;;;3.30;;
40290;SDS011;26000;48.304;13.626;2023-05-24T08:15:53;3.50;;;3.20;;
40290;SDS011;26000;48.304;13.626;2023-05-24T08:18:19;3.65;;;3.35;;
40290;SDS011;26000;48.304;13.626;2023-05-24T08:20:45;3.80;;;3.30;;
40290;SDS011;26000;48.304;13.626;2023-05-24T08:23:10;3.70;;;2.90;;
40290;SDS011;26000;48.304;13.626;2023-05-24T08:25:38;13.50;;;6.47;;
40290;SDS011;26000;48.304;13.626;2023-05-24T08:28:04;3.50;;;3.20;;
40290;SDS011;26000;48.304;13.626;2023-05-24T08:30:30;3.85;;;3.45;;
40290;SDS011;26000;48.304;13.626;2023-05-24T08:32:56;4.05;;;3.63;;
40290;SDS011;26000;48.304;13.626;2023-05-24T08:35:22;4.05;;;3.65;;
40290;SDS011;26000;48.304;13.626;2023-05-24T08:37:48;3.63;;;3.33;;
40290;SDS011;26000;48.304;13.626;2023-05-24T08:40:14;3.83;;;3.42;;
40290;SDS011;26000;48.304;13.626;2023-05-24T08:42:40;4.13;;;3.72;;
40290;SDS011;26000;48.304;13.626;2023-05-24T08:45:15;4.65;;;3.67;;
40290;SDS011;26000;48.304;13.626;2023-05-24T08:47:42;3.75;;;3.45;;
40290;SDS011;26000;48.304;13.626;2023-05-24T08:50:09;4.10;;;3.35;;
40290;SDS011;26000;48.304;13.626;2023-05-24T08:52:35;4.43;;;3.30;;
40290;SDS011;26000;48.304;13.626;2023-05-24T08:55:03;3.70;;;3.13;;
40290;SDS011;26000;48.304;13.626;2023-05-24T08:57:30;4.05;;;3.65;;
40290;SDS011;26000;48.304;13.626;2023-05-24T08:59:58;4.72;;;3.30;;
40290;SDS011;26000;48.304;13.626;2023-05-24T09:02:24;4.57;;;3.92;;
40290;SDS011;26000;48.304;13.626;2023-05-24T09:04:51;3.38;;;3.08;;
40290;SDS011;26000;48.304;13.626;2023-05-24T09:07:18;3.33;;;3.03;;
40290;SDS011;26000;48.304;13.626;2023-05-24T09:09:49;4.00;;;3.40;;
40290;SDS011;26000;48.304;13.626;2023-05-24T09:12:21;4.20;;;3.80;;
40290;SDS011;26000;48.304;13.626;2023-05-24T09:14:48;5.07;;;4.25;;
40290;SDS011;26000;48.304;13.626;2023-05-24T09:17:14;3.80;;;3.42;;
40290;SDS011;26000;48.304;13.626;2023-05-24T09:19:43;3.55;;;2.70;;
40290;SDS011;26000;48.304;13.626;2023-05-24T09:22:12;4.53;;;4.10;;
40290;SDS011;26000;48.304;13.626;2023-05-24T09:24:42;4.25;;;3.50;;
40290;SDS011;26000;48.304;13.626;2023-05-24T09:27:11;4.32;;;3.92;;
40290;SDS011;26000;48.304;13.626;2023-05-24T09:29:40;5.57;;;3.90;;
40290;SDS011;26000;48.304;13.626;2023-05-24T09:32:06;3.95;;;3.50;;
40290;SDS011;26000;48.304;13.626;2023-05-24T09:34:41;3.53;;;3.20;;
40290;SDS011;26000;48.304;13.626;2023-05-24T09:37:15;4.75;;;3.60;;
40290;SDS011;26000;48.304;13.626;2023-05-24T09:39:42;4.25;;;3.75;;
40290;SDS011;26000;48.304;13.626;2023-05-24T09:42:13;7.30;;;3.90;;
40290;SDS011;26000;48.304;13.626;2023-05-24T09:44:40;3.45;;;3.13;;
40290;SDS011;26000;48.304;13.626;2023-05-24T09:47:06;6.15;;;3.58;;
40290;SDS011;26000;48.304;13.626;2023-05-24T09:49:35;3.75;;;3.25;;
40290;SDS011;26000;48.304;13.626;2023-05-24T09:52:01;3.67;;;3.25;;
40290;SDS011;26000;48.304;13.626;2023-05-24T09:54:27;5.05;;;3.30;;
40290;SDS011;26000;48.304;13.626;2023-05-24T09:56:53;4.47;;;3.38;;
40290;SDS011;26000;48.304;13.626;2023-05-24T09:59:18;3.40;;;3.10;;
40290;SDS011;26000;48.304;13.626;2023-05-24T10:01:44;4.70;;;3.47;;
40290;SDS011;26000;48.304;13.626;2023-05-24T10:04:10;3.40;;;2.92;;
40290;SDS011;26000;48.304;13.626;2023-05-24T10:06:37;4.13;;;2.50;;
40290;SDS011;26000;48.304;13.626;2023-05-24T10:09:07;2.88;;;2.33;;
40290;SDS011;26000;48.304;13.626;2023-05-24T10:11:36;2.90;;;2.65;;
40290;SDS011;26000;48.304;13.626;2023-05-24T10:14:03;4.15;;;2.80;;
40290;SDS011;26000;48.304;13.626;2023-05-24T10:16:31;3.25;;;2.95;;
40290;SDS011;26000;48.304;13.626;2023-05-24T10:18:57;5.10;;;3.03;;
40290;SDS011;26000;48.304;13.626;2023-05-24T10:21:23;3.30;;;3.00;;
40290;SDS011;26000;48.304;13.626;2023-05-24T10:23:50;3.67;;;3.00;;
40290;SDS011;26000;48.304;13.626;2023-05-24T10:26:22;4.07;;;3.50;;
40290;SDS011;26000;48.304;13.626;2023-05-24T10:28:51;3.20;;;2.90;;
40290;SDS011;26000;48.304;13.626;2023-05-24T10:31:24;3.20;;;2.90;;
40290;SDS011;26000;48.304;13.626;2023-05-24T10:33:56;4.47;;;3.50;;
40290;SDS011;26000;48.304;13.626;2023-05-24T10:36:24;3.85;;;3.45;;
40290;SDS011;26000;48.304;13.626;2023-05-24T10:38:50;4.00;;;3.15;;
40290;SDS011;26000;48.304;13.626;2023-05-24T10:41:16;3.53;;;3.22;;
40290;SDS011;26000;48.304;13.626;2023-05-24T10:43:44;3.30;;;3.00;;
40290;SDS011;26000;48.304;13.626;2023-05-24T10:46:12;3.08;;;2.70;;
40290;SDS011;26000;48.304;13.626;2023-05-24T10:48:40;3.53;;;2.95;;
40290;SDS011;26000;48.304;13.626;2023-05-24T10:53:56;2.85;;;2.65;;
40290;SDS011;26000;48.304;13.626;2023-05-24T10:56:22;2.70;;;2.50;;
40290;SDS011;26000;48.304;13.626;2023-05-24T11:01:26;3.22;;;2.72;;
40290;SDS011;26000;48.304;13.626;2023-05-24T11:04:09;2.97;;;2.50;;
40290;SDS011;26000;48.304;13.626;2023-05-24T11:09:17;3.47;;;3.15;;
40290;SDS011;26000;48.304;13.626;2023-05-24T11:11:47;3.83;;;2.92;;
40290;SDS011;26000;48.304;13.626;2023-05-24T11:14:18;5.07;;;3.05;;
40290;SDS011;26000;48.304;13.626;2023-05-24T11:16:47;3.42;;;3.13;;
40290;SDS011;26000;48.304;13.626;2023-05-24T11:19:15;7.07;;;2.70;;
40290;SDS011;26000;48.304;13.626;2023-05-24T11:21:47;4.82;;;3.15;;
40290;SDS011;26000;48.304;13.626;2023-05-24T11:24:15;2.90;;;2.67;;
40290;SDS011;26000;48.304;13.626;2023-05-24T11:26:42;4.32;;;2.78;;
40290;SDS011;26000;48.304;13.626;2023-05-24T11:29:08;4.32;;;2.92;;
40290;SDS011;26000;48.304;13.626;2023-05-24T11:31:37;3.20;;;2.70;;
40290;SDS011;26000;48.304;13.626;2023-05-24T11:34:04;3.90;;;3.10;;
40290;SDS011;26000;48.304;13.626;2023-05-24T11:36:33;5.57;;;2.80;;
40290;SDS011;26000;48.304;13.626;2023-05-24T11:39:00;6.13;;;3.10;;
40290;SDS011;26000;48.304;13.626;2023-05-24T11:41:33;3.00;;;2.70;;
40290;SDS011;26000;48.304;13.626;2023-05-24T11:44:02;3.22;;;2.92;;
40290;SDS011;26000;48.304;13.626;2023-05-24T11:46:28;3.50;;;2.78;;
40290;SDS011;26000;48.304;13.626;2023-05-24T11:48:55;3.50;;;2.78;;
40290;SDS011;26000;48.304;13.626;2023-05-24T11:51:31;3.78;;;2.88;;
40290;SDS011;26000;48.304;13.626;2023-05-24T11:53:58;4.78;;;2.60;;
40290;SDS011;26000;48.304;13.626;2023-05-24T11:56:24;3.00;;;2.70;;
40290;SDS011;26000;48.304;13.626;2023-05-24T11:58:54;3.45;;;3.05;;
40290;SDS011;26000;48.304;13.626;2023-05-24T12:01:28;3.58;;;2.63;;
40290;SDS011;26000;48.304;13.626;2023-05-24T12:03:54;3.97;;;2.88;;
40290;SDS011;26000;48.304;13.626;2023-05-24T12:06:19;2.90;;;2.60;;
40290;SDS011;26000;48.304;13.626;2023-05-24T12:08:46;4.80;;;2.92;;
40290;SDS011;26000;48.304;13.626;2023-05-24T12:11:29;3.92;;;2.63;;
40290;SDS011;26000;48.304;13.626;2023-05-24T12:13:56;2.63;;;2.42;;
40290;SDS011;26000;48.304;13.626;2023-05-24T12:16:23;2.60;;;2.40;;
40290;SDS011;26000;48.304;13.626;2023-05-24T12:18:50;3.72;;;2.85;;
40290;SDS011;26000;48.304;13.626;2023-05-24T12:21:16;3.22;;;2.60;;
40290;SDS011;26000;48.304;13.626;2023-05-24T12:23:45;3.17;;;2.88;;
40290;SDS011;26000;48.304;13.626;2023-05-24T12:26:12;2.88;;;2.60;;
40290;SDS011;26000;48.304;13.626;2023-05-24T12:28:38;3.13;;;2.83;;
40290;SDS011;26000;48.304;13.626;2023-05-24T12:31:04;4.63;;;3.08;;
40290;SDS011;26000;48.304;13.626;2023-05-24T12:33:31;2.75;;;2.50;;
40290;SDS011;26000;48.304;13.626;2023-05-24T12:35:57;4.30;;;3.00;;
40290;SDS011;26000;48.304;13.626;2023-05-24T12:38:23;4.70;;;3.00;;
40290;SDS011;26000;48.304;13.626;2023-05-24T12:40:50;4.53;;;3.22;;
40290;SDS011;26000;48.304;13.626;2023-05-24T12:43:17;4.03;;;3.10;;
40290;SDS011;26000;48.304;13.626;2023-05-24T12:45:44;5.03;;;3.20;;
40290;SDS011;26000;48.304;13.626;2023-05-24T12:48:09;3.60;;;2.80;;
40290;SDS011;26000;48.304;13.626;2023-05-24T12:50:35;8.52;;;3.17;;
40290;SDS011;26000;48.304;13.626;2023-05-24T12:53:01;5.25;;;3.40;;
40290;SDS011;26000;48.304;13.626;2023-05-24T12:55:27;4.40;;;3.22;;
40290;SDS011;26000;48.304;13.626;2023-05-24T12:57:53;4.53;;;3.28;;
40290;SDS011;26000;48.304;13.626;2023-05-24T13:00:28;3.90;;;3.05;;
40290;SDS011;26000;48.304;13.626;2023-05-24T13:02:55;4.05;;;3.08;;
40290;SDS011;26000;48.304;13.626;2023-05-24T13:05:23;3.63;;;3.00;;
40290;SDS011;26000;48.304;13.626;2023-05-24T13:07:52;3.85;;;2.88;;
40290;SDS011;26000;48.304;13.626;2023-05-24T13:10:20;4.10;;;3.30;;
40290;SDS011;26000;48.304;13.626;2023-05-24T13:12:47;4.47;;;2.97;;
40290;SDS011;26000;48.304;13.626;2023-05-24T13:15:13;3.85;;;3.40;;
40290;SDS011;26000;48.304;13.626;2023-05-24T13:17:39;5.00;;;3.55;;
40290;SDS011;26000;48.304;13.626;2023-05-24T13:20:06;3.47;;;3.17;;
40290;SDS011;26000;48.304;13.626;2023-05-24T13:22:32;4.25;;;3.28;;
40290;SDS011;26000;48.304;13.626;2023-05-24T13:24:59;3.92;;;3.58;;
40290;SDS011;26000;48.304;13.626;2023-05-24T13:27:27;5.30;;;3.05;;
40290;SDS011;26000;48.304;13.626;2023-05-24T13:29:53;4.72;;;3.20;;
40290;SDS011;26000;48.304;13.626;2023-05-24T13:32:19;3.60;;;3.25;;
40290;SDS011;26000;48.304;13.626;2023-05-24T13:34:45;5.07;;;3.63;;
40290;SDS011;26000;48.304;13.626;2023-05-24T13:37:11;5.93;;;4.03;;
40290;SDS011;26000;48.304;13.626;2023-05-24T13:39:37;6.60;;;3.60;;
40290;SDS011;26000;48.304;13.626;2023-05-24T13:42:03;4.30;;;3.50;;
40290;SDS011;26000;48.304;13.626;2023-05-24T13:44:29;4.28;;;3.20;;
40290;SDS011;26000;48.304;13.626;2023-05-24T13:46:56;6.78;;;3.40;;
40290;SDS011;26000;48.304;13.626;2023-05-24T13:49:22;5.70;;;3.10;;
40290;SDS011;26000;48.304;13.626;2023-05-24T13:51:47;4.10;;;3.58;;
40290;SDS011;26000;48.304;13.626;2023-05-24T13:54:13;3.78;;;3.20;;
40290;SDS011;26000;48.304;13.626;2023-05-24T13:56:39;4.70;;;3.30;;
40290;SDS011;26000;48.304;13.626;2023-05-24T13:59:06;3.90;;;3.30;;
40290;SDS011;26000;48.304;13.626;2023-05-24T14:01:34;8.95;;;2.88;;
40290;SDS011;26000;48.304;13.626;2023-05-24T14:04:01;5.93;;;3.55;;
40290;SDS011;26000;48.304;13.626;2023-05-24T14:06:28;4.65;;;3.50;;
40290;SDS011;26000;48.304;13.626;2023-05-24T14:08:54;4.40;;;3.17;;
40290;SDS011;26000;48.304;13.626;2023-05-24T14:11:20;5.40;;;3.00;;
40290;SDS011;26000;48.304;13.626;2023-05-24T14:13:46;4.85;;;3.10;;
40290;SDS011;26000;48.304;13.626;2023-05-24T14:16:12;3.47;;;2.95;;
40290;SDS011;26000;48.304;13.626;2023-05-24T14:18:38;4.93;;;3.42;;
40290;SDS011;26000;48.304;13.626;2023-05-24T14:21:04;5.63;;;3.55;;
40290;SDS011;26000;48.304;13.626;2023-05-24T14:23:30;5.15;;;3.30;;
40290;SDS011;26000;48.304;13.626;2023-05-24T14:25:57;6.18;;;3.83;;
40290;SDS011;26000;48.304;13.626;2023-05-24T14:28:22;8.40;;;3.80;;
40290;SDS011;26000;48.304;13.626;2023-05-24T14:30:48;7.60;;;3.67;;
40290;SDS011;26000;48.304;13.626;2023-05-24T14:33:14;5.13;;;3.70;;
40290;SDS011;26000;48.304;13.626;2023-05-24T14:35:39;7.00;;;4.03;;
40290;SDS011;26000;48.304;13.626;2023-05-24T14:38:05;5.97;;;3.83;;
40290;SDS011;26000;48.304;13.626;2023-05-24T14:40:32;7.53;;;3.95;;
40290;SDS011;26000;48.304;13.626;2023-05-24T14:43:00;6.05;;;4.25;;
40290;SDS011;26000;48.304;13.626;2023-05-24T14:45:34;6.47;;;3.97;;
40290;SDS011;26000;48.304;13.626;2023-05-24T14:48:02;7.72;;;4.60;;
40290;SDS011;26000;48.304;13.626;2023-05-24T14:50:29;9.40;;;4.60;;